This is the latest recevied weather packets stored in our database for station/object KJ6APE. If no packets are shown the sender has not sent any weather packets the latest 10 day(s).
| Time | Temp. | Humidity | Pressure | Rain* | Wind** | Luminosity | Snow |
|---|---|---|---|---|---|---|---|
| 1777663068 | 20.56° C | 60% | 1014.7 hPa | 0 mm | - | 961 W/m² | - |
| 1777662765 | 20.56° C | 60% | 1014.9 hPa | 0 mm | - | 957 W/m² | - |
| 1777662462 | 20° C | 60% | 1014.7 hPa | 0 mm | - | 908 W/m² | - |
| 1777662157 | 20° C | 59% | 1014.8 hPa | 0 mm | - | 899 W/m² | - |
| 1777661853 | 20° C | 61% | 1014.9 hPa | 0 mm | - | 893 W/m² | - |
| 1777661549 | 20° C | 60% | 1014.9 hPa | 0 mm | - | 871 W/m² | - |
| 1777661245 | 20° C | 58% | 1015 hPa | 0 mm | - | 934 W/m² | - |
| 1777660941 | 19.44° C | 61% | 1015 hPa | 0 mm | - | 832 W/m² | - |
| 1777660637 | 19.44° C | 60% | 1015 hPa | 0 mm | - | 906 W/m² | - |
| 1777660334 | 18.89° C | 62% | 1015 hPa | 0 mm | - | 758 W/m² | - |
| 1777660030 | 18.89° C | 62% | 1014.9 hPa | 0 mm | - | 775 W/m² | - |
| 1777659727 | 18.89° C | 62% | 1015.1 hPa | 0 mm | - | 858 W/m² | - |
| 1777659424 | 18.33° C | 62% | 1015.1 hPa | 0 mm | - | 791 W/m² | - |
| 1777659121 | 18.33° C | 63% | 1015.2 hPa | 0 mm | - | 820 W/m² | - |
| 1777658819 | 18.33° C | 64% | 1015.3 hPa | 0 mm | - | 788 W/m² | - |
| 1777658515 | 18.33° C | 65% | 1015.3 hPa | 0 mm | - | 805 W/m² | - |
| 1777658211 | 18.33° C | 64% | 1015.3 hPa | 0 mm | - | 782 W/m² | - |
| 1777657909 | 18.33° C | 63% | 1015.1 hPa | 0 mm | - | 714 W/m² | - |
| 1777657605 | 18.33° C | 64% | 1015.2 hPa | 0 mm | - | 738 W/m² | - |
| 1777657303 | 17.78° C | 66% | 1015.1 hPa | 0 mm | - | 666 W/m² | - |
| 1777657000 | 17.78° C | 65% | 1015.1 hPa | 0 mm | - | 672 W/m² | - |
| 1777656697 | 18.33° C | 65% | 1015 hPa | 0 mm | - | 702 W/m² | - |
| 1777656393 | 17.78° C | 64% | 1015.3 hPa | 0 mm | - | 686 W/m² | - |
| 1777656088 | 17.78° C | 65% | 1015.4 hPa | 0 mm | - | 708 W/m² | - |
| 1777655784 | 17.78° C | 67% | 1015.2 hPa | 0 mm | - | 683 W/m² | - |
* Rain latest hour (hover to see other rain measurements)
** Current wind speed in m/s (hover to see current wind gust speed)